createdAt,value
2022-10-21T00:04:50.228Z,88.03
2022-10-21T00:09:52.206Z,88.27
2022-10-21T00:14:56.441Z,88.43
2022-10-21T00:19:59.150Z,88.44
2022-10-21T00:25:00.956Z,88.60
2022-10-21T00:30:05.415Z,88.64
2022-10-21T00:35:07.543Z,88.80
2022-10-21T00:40:09.772Z,88.96
2022-10-21T00:45:17.215Z,89.08
2022-10-21T00:50:28.154Z,89.01
2022-10-21T00:55:34.186Z,89.11
2022-10-21T01:00:36.176Z,89.21
2022-10-21T01:05:40.812Z,89.23
2022-10-21T01:10:42.660Z,89.41
2022-10-21T01:15:58.132Z,89.72
2022-10-21T01:21:26.041Z,89.63
2022-10-21T01:26:56.076Z,90.12
2022-10-21T01:32:33.132Z,90.04
2022-10-21T01:37:43.745Z,90.13
2022-10-21T01:42:53.634Z,90.07
2022-10-21T01:48:03.035Z,90.21
2022-10-21T01:53:11.636Z,90.17
2022-10-21T01:58:19.730Z,90.53
2022-10-21T02:03:26.215Z,90.51
2022-10-21T02:08:28.195Z,90.65
2022-10-21T02:13:40.124Z,90.66
2022-10-21T02:18:41.905Z,90.73
2022-10-21T02:23:54.575Z,90.85
2022-10-21T02:28:59.421Z,90.94
2022-10-21T02:34:10.367Z,91.15
2022-10-21T02:39:21.189Z,91.20
2022-10-21T02:44:23.603Z,91.16
2022-10-21T02:49:25.405Z,91.29
2022-10-21T02:54:27.183Z,91.57
2022-10-21T02:59:29.064Z,91.87
2022-10-21T03:04:30.812Z,91.78
2022-10-21T03:09:32.737Z,91.73
2022-10-21T03:14:34.463Z,91.76
2022-10-21T03:19:36.244Z,92.02
2022-10-21T03:24:37.972Z,91.92
2022-10-21T03:29:39.833Z,92.11
2022-10-21T03:34:41.655Z,92.13
2022-10-21T03:39:43.632Z,92.09
2022-10-21T03:44:45.549Z,92.21
2022-10-21T03:49:47.273Z,92.32
2022-10-21T03:54:49.119Z,92.28
2022-10-21T03:59:50.840Z,92.51
2022-10-21T04:04:52.585Z,92.59
2022-10-21T04:09:54.348Z,92.86
2022-10-21T04:14:56.138Z,92.76
2022-10-21T04:19:57.916Z,92.58
2022-10-21T04:25:02.274Z,92.66
2022-10-21T04:30:07.363Z,92.44
2022-10-21T04:35:09.273Z,92.71
2022-10-21T04:40:11.287Z,92.73
2022-10-21T04:45:13.015Z,92.81
2022-10-21T04:50:14.830Z,92.84
2022-10-21T04:55:16.731Z,92.75
2022-10-21T05:00:18.719Z,93.23
2022-10-21T05:05:20.441Z,93.15
2022-10-21T05:10:23.859Z,93.23
2022-10-21T05:15:26.248Z,93.17
2022-10-21T05:20:28.198Z,93.36
2022-10-21T05:25:31.841Z,93.33
2022-10-21T05:30:36.178Z,93.41
2022-10-21T05:35:37.990Z,93.57
2022-10-21T05:40:39.794Z,93.37
2022-10-21T05:45:41.499Z,93.39
2022-10-21T05:50:43.454Z,93.55
2022-10-21T05:55:45.187Z,93.31
2022-10-21T06:00:56.291Z,93.17
2022-10-21T06:06:00.320Z,92.87
2022-10-21T06:11:07.103Z,92.93
2022-10-21T06:16:10.064Z,92.88
2022-10-21T06:21:13.381Z,92.79
2022-10-21T06:26:16.763Z,92.87
2022-10-21T06:31:21.640Z,93.04
2022-10-21T06:36:23.382Z,93.12
2022-10-21T06:41:25.356Z,93.38
2022-10-21T06:46:27.285Z,93.63
2022-10-21T06:51:29.583Z,94.18
2022-10-21T06:56:31.955Z,94.62
2022-10-21T07:01:48.122Z,94.98
2022-10-21T07:06:55.574Z,95.13
2022-10-21T07:11:57.352Z,94.31
2022-10-21T07:16:59.116Z,94.19
2022-10-21T07:22:01.318Z,94.08
2022-10-21T07:27:03.127Z,93.58
2022-10-21T07:32:05.016Z,93.59
2022-10-21T07:37:06.913Z,92.85
2022-10-21T07:42:09.906Z,92.50
2022-10-21T07:47:11.631Z,91.79
2022-10-21T07:57:20.146Z,90.64
2022-10-21T08:02:24.098Z,90.02
2022-10-21T08:07:25.910Z,88.75
2022-10-21T08:12:27.659Z,87.23
2022-10-21T08:17:29.376Z,86.97
2022-10-21T08:22:31.064Z,87.37
2022-10-21T08:27:33.953Z,87.08
2022-10-21T08:32:35.908Z,85.61
2022-10-21T08:37:38.104Z,83.47
2022-10-21T08:42:42.646Z,82.98
2022-10-21T08:47:50.032Z,83.30
2022-10-21T08:52:58.844Z,83.70
2022-10-21T08:58:01.979Z,83.39
2022-10-21T09:03:31.560Z,83.36
2022-10-21T09:08:42.079Z,83.67
2022-10-21T09:14:13.180Z,83.62
2022-10-21T09:19:24.042Z,83.28
2022-10-21T09:24:32.828Z,83.82
2022-10-21T09:29:43.404Z,84.47
2022-10-21T09:35:29.654Z,84.49
2022-10-21T09:40:31.982Z,84.10
2022-10-21T09:45:43.861Z,83.88
2022-10-21T09:50:48.478Z,83.84
2022-10-21T09:55:56.355Z,83.17
2022-10-21T10:00:58.944Z,82.22
2022-10-21T10:06:01.722Z,82.02
2022-10-21T10:11:03.485Z,80.77
2022-10-21T10:16:17.455Z,80.39
2022-10-21T10:21:21.284Z,80.61
2022-10-21T10:26:32.334Z,81.19
2022-10-21T10:31:36.138Z,81.25
2022-10-21T10:36:40.475Z,81.04
2022-10-21T10:41:47.434Z,80.76
2022-10-21T10:46:55.971Z,81.34
2022-10-21T10:52:09.652Z,80.80
2022-10-21T10:57:18.474Z,80.68
2022-10-21T11:02:48.258Z,80.78
2022-10-21T11:07:52.919Z,80.49
2022-10-21T11:12:54.720Z,79.89
2022-10-21T11:18:17.008Z,79.12
2022-10-21T11:23:52.350Z,78.47
2022-10-21T11:29:12.075Z,77.69
2022-10-21T11:34:22.517Z,75.26
2022-10-21T11:39:48.593Z,74.19
2022-10-21T11:45:02.401Z,75.24
2022-10-21T11:50:35.587Z,73.57
2022-10-21T11:55:43.792Z,72.72
2022-10-21T12:01:14.911Z,71.19
2022-10-21T12:06:30.588Z,71.18
2022-10-21T12:11:41.868Z,70.55
2022-10-21T12:16:45.347Z,71.21
2022-10-21T12:21:47.549Z,70.70
2022-10-21T12:26:58.429Z,70.46
2022-10-21T12:32:10.720Z,71.16
2022-10-21T12:37:50.441Z,71.16
2022-10-21T12:43:05.342Z,69.29
2022-10-21T12:48:32.661Z,70.47
2022-10-21T12:53:42.223Z,70.93
2022-10-21T12:58:46.225Z,70.87
2022-10-21T13:03:52.312Z,70.80
2022-10-21T13:08:55.677Z,70.87
2022-10-21T13:14:33.503Z,70.36
2022-10-21T13:19:37.943Z,70.42
2022-10-21T13:24:41.175Z,70.33
2022-10-21T13:29:48.447Z,71.06
2022-10-21T13:35:01.927Z,70.59
2022-10-21T13:40:07.835Z,69.57
2022-10-21T13:45:48.178Z,69.92
2022-10-21T13:50:51.933Z,69.39
2022-10-21T13:55:59.341Z,69.52
2022-10-21T14:01:27.397Z,69.08
2022-10-21T14:06:36.168Z,69.03
2022-10-21T14:11:46.981Z,67.99
2022-10-21T14:16:52.990Z,67.70
2022-10-21T14:21:58.667Z,67.75
2022-10-21T14:27:01.894Z,68.02
2022-10-21T14:32:05.722Z,68.67
2022-10-21T14:37:11.874Z,68.63
2022-10-21T14:42:20.256Z,68.89
2022-10-21T14:47:25.612Z,69.37
2022-10-21T14:52:32.710Z,69.53
2022-10-21T14:57:53.692Z,69.83
2022-10-21T15:02:56.867Z,69.75
2022-10-21T15:08:21.679Z,70.03
2022-10-21T15:13:25.878Z,70.10
2022-10-21T15:18:36.875Z,70.51
2022-10-21T15:23:42.136Z,70.35
2022-10-21T15:28:44.580Z,69.88
2022-10-21T15:33:48.768Z,70.20
2022-10-21T15:38:50.906Z,69.90
2022-10-21T15:44:04.463Z,69.82
2022-10-21T15:49:13.310Z,69.95
2022-10-21T15:54:16.206Z,70.06
2022-10-21T15:59:27.033Z,69.84
2022-10-21T16:04:28.800Z,69.94
2022-10-21T16:09:30.528Z,69.91
2022-10-21T16:14:32.340Z,69.90
2022-10-21T16:19:34.135Z,69.81
2022-10-21T16:24:35.829Z,70.13
2022-10-21T16:29:37.666Z,70.74
2022-10-21T16:34:40.259Z,70.68
2022-10-21T16:39:42.087Z,70.51
2022-10-21T16:44:46.768Z,70.64
2022-10-21T16:49:49.314Z,70.82
2022-10-21T16:54:51.217Z,71.23
2022-10-21T16:59:53.229Z,71.24
2022-10-21T17:04:55.309Z,71.18
2022-10-21T17:09:57.139Z,71.30
2022-10-21T17:14:59.555Z,70.84
2022-10-21T17:20:01.440Z,70.74
2022-10-21T17:25:04.169Z,70.85
2022-10-21T17:30:06.620Z,71.09
2022-10-21T17:35:14.999Z,71.06
2022-10-21T17:40:27.315Z,70.85
2022-10-21T17:45:29.172Z,70.82
2022-10-21T17:50:32.018Z,70.85
2022-10-21T17:55:33.853Z,71.05
2022-10-21T18:00:35.893Z,71.21
2022-10-21T18:05:41.306Z,71.39
2022-10-21T18:10:43.221Z,71.63
2022-10-21T18:15:45.108Z,72.18
2022-10-21T18:20:47.376Z,72.55
2022-10-21T18:25:49.112Z,72.44
2022-10-21T18:30:52.038Z,72.38
2022-10-21T18:35:54.454Z,72.30
2022-10-21T18:41:01.934Z,72.38
2022-10-21T18:46:05.272Z,73.29
2022-10-21T18:51:09.366Z,75.81
2022-10-21T18:56:13.585Z,75.71
2022-10-21T19:01:15.863Z,76.34
2022-10-21T19:06:36.243Z,76.71
2022-10-21T19:11:38.203Z,77.20
2022-10-21T19:16:40.255Z,77.62
2022-10-21T19:21:42.484Z,78.01
2022-10-21T19:26:46.336Z,78.30
2022-10-21T19:31:48.871Z,78.60
2022-10-21T19:36:53.021Z,78.70
2022-10-21T19:41:54.998Z,78.82
2022-10-21T19:46:56.872Z,79.49
2022-10-21T19:51:58.850Z,79.47
2022-10-21T19:57:00.697Z,79.79
2022-10-21T20:02:03.061Z,79.85
2022-10-21T20:07:05.107Z,79.80
2022-10-21T20:12:06.901Z,80.27
2022-10-21T20:17:08.966Z,80.55
2022-10-21T20:22:10.787Z,80.96
2022-10-21T20:27:12.577Z,80.79
2022-10-21T20:32:14.391Z,80.65
2022-10-21T20:37:16.187Z,80.64
2022-10-21T20:42:18.032Z,80.37
2022-10-21T20:47:19.872Z,80.40
2022-10-21T20:52:21.709Z,80.26
2022-10-21T20:57:23.641Z,80.11
2022-10-21T21:02:25.349Z,79.94
2022-10-21T21:07:27.128Z,79.79
2022-10-21T21:12:33.845Z,79.85
2022-10-21T21:17:35.640Z,79.70
2022-10-21T21:22:37.887Z,79.61
2022-10-21T21:27:40.131Z,79.42
2022-10-21T21:32:44.171Z,79.28
2022-10-21T21:37:46.171Z,79.13
2022-10-21T21:42:47.948Z,79.08
2022-10-21T21:47:50.688Z,78.75
2022-10-21T21:52:52.426Z,78.81
2022-10-21T21:57:54.172Z,78.54
2022-10-21T22:02:56.359Z,78.35
2022-10-21T22:07:59.124Z,78.42
2022-10-21T22:13:01.040Z,78.52
2022-10-21T22:18:02.793Z,78.27
2022-10-21T22:23:05.180Z,78.10
2022-10-21T22:28:06.895Z,78.06
2022-10-21T22:33:08.759Z,78.14
2022-10-21T22:38:10.484Z,78.16
2022-10-21T22:43:12.333Z,78.19
2022-10-21T22:48:14.142Z,78.25
2022-10-21T22:53:15.958Z,78.07
2022-10-21T22:58:19.951Z,78.04
2022-10-21T23:03:21.752Z,77.74
2022-10-21T23:08:25.827Z,77.48
2022-10-21T23:13:35.411Z,77.57
2022-10-21T23:18:37.234Z,77.30
2022-10-21T23:23:39.259Z,77.27
2022-10-21T23:28:40.991Z,77.03
2022-10-21T23:33:43.104Z,76.98
2022-10-21T23:38:44.849Z,76.85
2022-10-21T23:43:46.610Z,76.97
2022-10-21T23:48:48.692Z,76.79
2022-10-21T23:53:50.464Z,76.90
2022-10-21T23:58:52.256Z,76.82
